Throop, Pennsylvania
Current Conditions -  °F | °C
As of 9:54 PM on Friday 19 Dec 2014 (Local Time) from KAVP Reporting Station
Overcast Overcast  
Wind Chill: 20°   Ceiling: 1800
Heat Index: 29°   Visibility: 10mi
Dew Point: 21°   Wind: 9mph
Humidity: 72%   Direction: 330°NNW
Pressure: 30.17"   Gusts: NA
Location:  41.4243°N, 75.5976°W
Report Text: KAVP 200254Z AUTO 33008KT 10SM OVC018 M02/M06 A3017 RMK AO2 SLP225 T10171061 53001
Loading
Personal Weather Stations






























Interactive Weather Map New forecast layout! Learn more

10-Day Weather Forecast

Advertisements
Track Severe Weather on mobile